Time;durP1;ratioP1;P1;durP2;ratioP2;P2;SDS_P1;SDS_P2;PMS_P1;PMS_P2;Temp;Humidity;BMP_temperature;BMP_pressure;BME280_temperature;BME280_humidity;BME280_pressure;Samples;Min_cycle;Max_cycle;Signal;HPM_P1;HPM_P2
2022/07/16 00:02:34;;;;;;;1.80;1.40;;;20.20;52.00;;;;;;4813898;29;20026;-77
2022/07/16 00:05:01;;;;;;;2.10;1.90;;;20.20;52.00;;;;;;4814965;29;20356;-79
2022/07/16 00:07:28;;;;;;;2.05;1.70;;;20.10;52.00;;;;;;4813508;29;20406;-77
2022/07/16 00:09:54;;;;;;;3.97;1.92;;;20.10;52.10;;;;;;4814965;29;20046;-79
2022/07/16 00:12:19;;;;;;;2.10;1.90;;;20.10;52.10;;;;;;4813255;29;20480;-77
2022/07/16 00:14:45;;;;;;;2.50;1.80;;;20.00;52.10;;;;;;4815687;29;20041;-77
2022/07/16 00:17:11;;;;;;;2.17;1.70;;;20.00;52.20;;;;;;4815221;29;20488;-77
2022/07/16 00:19:37;;;;;;;2.63;1.83;;;19.90;52.10;;;;;;4814091;29;20035;-78
2022/07/16 00:22:03;;;;;;;2.10;1.90;;;19.90;52.30;;;;;;4816588;29;20034;-77
2022/07/16 00:24:29;;;;;;;2.10;1.90;;;19.90;52.30;;;;;;4818263;29;20050;-77
2022/07/16 00:26:55;;;;;;;2.03;1.85;;;19.90;52.40;;;;;;4819349;29;20495;-77
2022/07/16 00:29:21;;;;;;;2.15;1.80;;;19.80;52.40;;;;;;4801309;29;20060;-78
2022/07/16 00:31:49;;;;;;;2.10;1.90;;;19.80;52.40;;;;;;4817513;29;20041;-77
2022/07/16 00:34:15;;;;;;;2.90;1.50;;;19.70;52.30;;;;;;4814993;29;20491;-78
2022/07/16 00:36:41;;;;;;;3.30;1.95;;;19.70;52.40;;;;;;4815199;29;20253;-79
2022/07/16 00:39:10;;;;;;;2.30;1.83;;;19.70;52.50;;;;;;4814131;29;20048;-79
2022/07/16 00:41:37;;;;;;;2.22;1.67;;;19.60;52.40;;;;;;4814832;29;20031;-79
2022/07/16 00:44:06;;;;;;;2.67;2.20;;;19.60;52.60;;;;;;4798163;29;20042;-78
2022/07/16 00:46:33;;;;;;;1.55;1.45;;;19.60;52.80;;;;;;4814392;29;20074;-78
2022/07/16 00:48:59;;;;;;;3.50;1.92;;;19.50;52.50;;;;;;4814520;29;20050;-78
2022/07/16 00:51:27;;;;;;;4.28;2.38;;;19.50;52.70;;;;;;4814160;29;20031;-77
2022/07/16 00:53:54;;;;;;;3.10;1.85;;;19.40;52.60;;;;;;4814268;29;20045;-77
2022/07/16 00:56:22;;;;;;;2.60;1.85;;;19.40;52.60;;;;;;4814278;29;20022;-77
2022/07/16 00:58:49;;;;;;;4.15;2.67;;;19.40;52.60;;;;;;4814694;29;20038;-77
2022/07/16 01:01:16;;;;;;;2.30;1.80;;;19.30;52.50;;;;;;4797258;29;20034;-76
2022/07/16 01:03:43;;;;;;;3.20;1.92;;;19.30;52.60;;;;;;4814226;29;20385;-76
2022/07/16 01:06:11;;;;;;;3.10;2.08;;;19.30;52.70;;;;;;4797755;29;20026;-77
2022/07/16 01:08:39;;;;;;;2.22;1.70;;;19.30;53.30;;;;;;4814041;29;20038;-77
2022/07/16 01:11:08;;;;;;;2.17;1.63;;;19.20;52.60;;;;;;4796846;29;20038;-76
2022/07/16 01:13:35;;;;;;;3.03;2.20;;;19.20;52.70;;;;;;4815209;29;20029;-77
2022/07/16 01:16:01;;;;;;;3.67;2.00;;;19.20;52.80;;;;;;4815961;29;20038;-77
2022/07/16 01:18:27;;;;;;;2.90;2.60;;;19.10;52.70;;;;;;4817314;29;20038;-77
2022/07/16 01:20:53;;;;;;;2.42;2.00;;;19.10;52.70;;;;;;4817609;29;20563;-78
2022/07/16 01:23:21;;;;;;;2.38;2.05;;;19.10;52.80;;;;;;4818818;29;20034;-78
2022/07/16 01:25:48;;;;;;;2.63;1.98;;;19.00;52.70;;;;;;4817375;29;20045;-76
2022/07/16 01:28:15;;;;;;;2.63;2.10;;;19.00;52.70;;;;;;4817701;29;20078;-78
2022/07/16 01:30:41;;;;;;;2.25;1.90;;;19.00;52.70;;;;;;4798305;29;20046;-77
2022/07/16 01:33:27;;;;;;;3.10;2.00;;;18.90;52.70;;;;;;4811945;29;20833;-76
2022/07/16 01:36:00;;;;;;;2.45;2.25;;;18.90;52.80;;;;;;4810759;29;20058;-77
2022/07/16 01:38:27;;;;;;;2.85;2.40;;;18.80;52.60;;;;;;4813544;29;20034;-76
2022/07/16 01:40:53;;;;;;;2.40;2.08;;;18.80;52.60;;;;;;4811027;29;20360;-76
2022/07/16 01:43:22;;;;;;;2.42;2.22;;;18.80;52.70;;;;;;4812970;29;20042;-77
2022/07/16 01:45:48;;;;;;;2.80;2.15;;;18.70;52.60;;;;;;4813772;29;20042;-78
2022/07/16 01:48:17;;;;;;;3.15;1.98;;;18.70;52.70;;;;;;4814086;29;20429;-78
2022/07/16 01:50:43;;;;;;;3.38;2.20;;;18.70;52.80;;;;;;4814214;29;20457;-76
2022/07/16 01:53:10;;;;;;;2.42;2.20;;;18.60;52.60;;;;;;4813257;29;20038;-77
2022/07/16 01:55:37;;;;;;;3.05;2.17;;;18.60;52.80;;;;;;4796799;29;20146;-76
2022/07/16 01:58:04;;;;;;;2.58;1.98;;;18.50;52.60;;;;;;4795214;29;20107;-76
2022/07/16 02:00:31;;;;;;;3.33;2.80;;;18.50;52.70;;;;;;4813782;29;20037;-77
2022/07/16 02:02:58;;;;;;;2.50;1.95;;;18.50;52.70;;;;;;4798168;29;20099;-78
2022/07/16 02:05:24;;;;;;;2.97;2.65;;;18.50;52.80;;;;;;4813635;29;20387;-77
2022/07/16 02:07:50;;;;;;;3.20;2.47;;;18.40;52.70;;;;;;4813503;29;20039;-77
2022/07/16 02:10:16;;;;;;;3.15;2.30;;;18.40;52.80;;;;;;4813015;29;20299;-76
2022/07/16 02:12:42;;;;;;;2.20;1.83;;;18.30;52.60;;;;;;4813639;29;20034;-77
2022/07/16 02:15:09;;;;;;;3.47;2.15;;;18.30;52.70;;;;;;4800595;29;20741;-79
2022/07/16 02:17:36;;;;;;;2.58;2.13;;;18.30;52.70;;;;;;4817683;29;20034;-77
2022/07/16 02:20:04;;;;;;;2.40;2.13;;;18.30;52.80;;;;;;4816088;29;20034;-77
2022/07/16 02:22:30;;;;;;;2.47;2.10;;;18.20;52.70;;;;;;4801419;29;20061;-77
2022/07/16 02:24:56;;;;;;;3.08;2.22;;;18.20;52.70;;;;;;4815886;29;20062;-77
2022/07/16 02:27:22;;;;;;;2.92;2.30;;;18.10;52.70;;;;;;4817151;29;20065;-77
2022/07/16 02:29:48;;;;;;;2.92;2.45;;;18.10;52.70;;;;;;4817681;29;20651;-78
2022/07/16 02:32:14;;;;;;;3.35;2.40;;;18.10;52.80;;;;;;4816980;29;20034;-77
2022/07/16 02:34:40;;;;;;;2.35;1.98;;;18.10;52.80;;;;;;4817199;29;20847;-78
2022/07/16 02:37:06;;;;;;;3.45;2.20;;;18.00;52.70;;;;;;4800502;29;20046;-77
2022/07/16 02:39:32;;;;;;;2.72;2.00;;;18.00;52.80;;;;;;4816562;29;20038;-77
2022/07/16 02:41:58;;;;;;;2.70;2.00;;;18.00;52.80;;;;;;4816801;29;20042;-77
2022/07/16 02:44:25;;;;;;;2.65;2.45;;;18.00;52.90;;;;;;4817061;29;20242;-77
2022/07/16 02:46:51;;;;;;;2.28;2.08;;;17.90;52.80;;;;;;4817137;29;20038;-77
2022/07/16 02:49:17;;;;;;;3.50;2.58;;;17.90;52.90;;;;;;4800354;29;20043;-77
2022/07/16 02:51:43;;;;;;;2.55;2.33;;;17.80;52.70;;;;;;4816946;29;20030;-77
2022/07/16 02:54:09;;;;;;;3.28;2.97;;;17.80;52.80;;;;;;4814918;29;20090;-77
2022/07/16 02:56:35;;;;;;;3.08;2.33;;;17.80;52.80;;;;;;4815625;29;20034;-77
2022/07/16 02:59:01;;;;;;;3.67;2.65;;;17.80;52.90;;;;;;4816579;29;20095;-77
2022/07/16 03:01:27;;;;;;;2.22;1.80;;;17.80;52.90;;;;;;4816747;29;20440;-77
2022/07/16 03:03:53;;;;;;;3.00;2.10;;;17.70;52.80;;;;;;4816722;29;20125;-77
2022/07/16 03:06:18;;;;;;;2.40;2.20;;;17.70;52.90;;;;;;4800039;29;20102;-78
2022/07/16 03:08:46;;;;;;;3.17;2.78;;;17.70;52.90;;;;;;4815969;29;20054;-77
2022/07/16 03:11:12;;;;;;;2.55;2.10;;;17.60;52.80;;;;;;4815577;29;20035;-77
2022/07/16 03:13:38;;;;;;;4.38;2.38;;;17.60;52.90;;;;;;4816632;29;20035;-77
2022/07/16 03:16:04;;;;;;;3.58;2.40;;;17.60;53.50;;;;;;4816811;29;20455;-77
2022/07/16 03:18:30;;;;;;;6.40;3.78;;;17.50;52.80;;;;;;4816149;29;20042;-78
2022/07/16 03:20:56;;;;;;;3.53;2.53;;;17.50;52.80;;;;;;4816301;29;20022;-78
2022/07/16 03:23:22;;;;;;;4.10;2.70;;;17.50;52.90;;;;;;4816599;29;20042;-79
2022/07/16 03:25:48;;;;;;;2.88;2.63;;;17.50;52.90;;;;;;4813307;29;20030;-77
2022/07/16 03:28:14;;;;;;;3.10;2.42;;;17.40;52.80;;;;;;4816701;29;20038;-78
2022/07/16 03:30:39;;;;;;;3.03;2.72;;;17.40;52.80;;;;;;4815787;29;20052;-78
2022/07/16 03:33:06;;;;;;;4.53;3.05;;;17.40;53.00;;;;;;4817562;29;20393;-77
2022/07/16 03:35:33;;;;;;;2.78;2.38;;;17.30;52.80;;;;;;4816561;29;20030;-78
2022/07/16 03:40:43;;;;;;;3.83;2.63;;;17.30;52.80;;;;;;4815910;29;20045;-78
2022/07/16 03:43:09;;;;;;;3.00;2.40;;;17.30;52.90;;;;;;4816349;29;20034;-77
2022/07/16 03:45:35;;;;;;;3.05;2.58;;;17.20;52.80;;;;;;4815694;29;20078;-78
2022/07/16 03:48:01;;;;;;;4.50;2.42;;;17.20;52.90;;;;;;4815096;29;20531;-78
2022/07/16 03:50:27;;;;;;;4.63;2.70;;;17.10;52.80;;;;;;4815305;29;20141;-77
2022/07/16 03:52:53;;;;;;;4.30;2.78;;;17.10;52.80;;;;;;4815522;29;20084;-76
2022/07/16 03:55:19;;;;;;;3.88;2.92;;;17.10;52.90;;;;;;4798798;29;20125;-77
2022/07/16 03:57:45;;;;;;;3.85;3.05;;;17.10;53.00;;;;;;4815132;29;20182;-78
2022/07/16 04:00:12;;;;;;;4.97;2.70;;;17.10;53.00;;;;;;4816228;29;20783;-77
2022/07/16 04:02:38;;;;;;;3.38;3.00;;;17.00;52.80;;;;;;4814372;29;20037;-77
2022/07/16 04:05:05;;;;;;;3.85;2.95;;;17.00;52.90;;;;;;4815402;29;20079;-76
2022/07/16 04:07:31;;;;;;;5.35;3.47;;;17.00;53.00;;;;;;4814240;29;20039;-78
2022/07/16 04:09:57;;;;;;;3.35;2.60;;;16.90;52.90;;;;;;4798083;29;20050;-79
2022/07/16 04:12:24;;;;;;;3.60;2.65;;;16.90;52.90;;;;;;4814838;29;20019;-79
2022/07/16 04:14:53;;;;;;;3.65;2.40;;;16.90;53.00;;;;;;4815766;29;20391;-78
2022/07/16 04:17:19;;;;;;;3.58;2.95;;;16.90;53.10;;;;;;4815759;29;20045;-78
2022/07/16 04:19:45;;;;;;;2.90;2.65;;;16.90;53.10;;;;;;4813595;29;20041;-79
2022/07/16 04:22:11;;;;;;;3.13;2.83;;;16.80;52.90;;;;;;4816096;29;20027;-78
2022/07/16 04:24:37;;;;;;;3.10;2.30;;;16.90;53.20;;;;;;4813658;29;20125;-78
2022/07/16 04:27:03;;;;;;;3.03;2.63;;;16.80;53.00;;;;;;4815316;29;20045;-77
2022/07/16 04:29:29;;;;;;;3.05;2.70;;;16.80;53.00;;;;;;4815528;29;20062;-77
2022/07/16 04:31:55;;;;;;;3.97;2.78;;;16.80;53.00;;;;;;4811918;29;20571;-76
2022/07/16 04:34:21;;;;;;;5.93;2.40;;;16.80;53.10;;;;;;4799032;29;20099;-76
2022/07/16 04:36:47;;;;;;;3.15;2.58;;;16.80;53.10;;;;;;4814353;29;20046;-78
2022/07/16 04:39:13;;;;;;;3.08;2.30;;;16.80;53.10;;;;;;4813999;29;20030;-77
2022/07/16 04:41:39;;;;;;;4.07;3.13;;;16.80;53.10;;;;;;4797988;29;20066;-77
2022/07/16 04:44:05;;;;;;;2.75;2.53;;;16.80;53.10;;;;;;4798885;29;20626;-78
2022/07/16 04:46:31;;;;;;;3.78;2.47;;;16.80;53.10;;;;;;4811683;29;20038;-78
2022/07/16 04:48:57;;;;;;;5.18;2.72;;;16.80;53.10;;;;;;4812849;29;20045;-78
2022/07/16 04:51:23;;;;;;;2.83;2.28;;;16.80;53.20;;;;;;4821117;29;20038;-77
2022/07/16 04:53:48;;;;;;;3.25;2.67;;;16.80;53.20;;;;;;4818520;29;20038;-78
2022/07/16 04:56:14;;;;;;;3.70;2.83;;;16.90;53.30;;;;;;4818471;29;20307;-77
2022/07/16 04:58:40;;;;;;;2.50;2.30;;;16.80;53.20;;;;;;4818315;29;20499;-78
2022/07/16 05:01:07;;;;;;;3.22;2.40;;;16.90;53.30;;;;;;4802498;29;20022;-78
2022/07/16 05:03:33;;;;;;;2.65;2.17;;;16.90;53.20;;;;;;4814842;29;20042;-78
2022/07/16 05:05:59;;;;;;;3.30;2.17;;;16.90;53.20;;;;;;4814408;29;20438;-78
2022/07/16 05:08:25;;;;;;;2.72;2.30;;;17.00;53.30;;;;;;4814298;29;20032;-78
2022/07/16 05:10:50;;;;;;;2.72;2.15;;;17.00;53.20;;;;;;4814984;29;20102;-79
2022/07/16 05:13:16;;;;;;;3.22;2.65;;;17.10;53.30;;;;;;4812606;29;20289;-84
2022/07/16 05:15:42;;;;;;;2.33;2.13;;;17.10;53.20;;;;;;4814188;29;21440;-84
2022/07/16 05:18:09;;;;;;;2.75;2.20;;;17.20;53.30;;;;;;4814323;29;20037;-79
2022/07/16 05:20:35;;;;;;;2.92;2.45;;;17.20;53.20;;;;;;4814196;29;20040;-78
2022/07/16 05:23:01;;;;;;;2.50;2.30;;;17.30;53.20;;;;;;4813684;29;20034;-77
2022/07/16 05:25:27;;;;;;;2.85;2.40;;;17.40;53.30;;;;;;4813098;29;20070;-80
2022/07/16 05:27:53;;;;;;;2.95;2.30;;;17.50;53.30;;;;;;4812325;29;20065;-84
2022/07/16 05:30:19;;;;;;;3.10;2.33;;;17.50;53.20;;;;;;4813907;29;20148;-84
2022/07/16 05:32:45;;;;;;;3.58;2.47;;;17.60;53.20;;;;;;4815144;29;20141;-81
2022/07/16 05:35:13;;;;;;;3.35;2.53;;;17.70;53.30;;;;;;4812501;29;20395;-80
2022/07/16 05:37:39;;;;;;;5.07;2.00;;;17.80;53.30;;;;;;4813719;29;20050;-79
2022/07/16 05:40:06;;;;;;;3.28;2.58;;;17.90;53.40;;;;;;4813779;29;20034;-79
2022/07/16 05:42:32;;;;;;;3.45;2.65;;;18.00;53.40;;;;;;4798007;29;20038;-78
2022/07/16 05:44:58;;;;;;;3.15;2.20;;;18.10;53.40;;;;;;4814173;29;20137;-81
2022/07/16 05:47:24;;;;;;;3.25;2.03;;;18.20;53.40;;;;;;4814215;29;20287;-80
2022/07/16 05:49:50;;;;;;;2.53;2.33;;;18.30;53.40;;;;;;4815221;29;20054;-80
2022/07/16 05:52:16;;;;;;;2.67;2.40;;;18.50;53.60;;;;;;4816258;29;20449;-82
2022/07/16 05:54:42;;;;;;;2.58;2.08;;;18.60;53.50;;;;;;4815463;29;20038;-81
2022/07/16 05:57:08;;;;;;;2.55;2.00;;;18.70;53.50;;;;;;4816209;29;20028;-80
2022/07/16 05:59:34;;;;;;;2.20;2.00;;;18.90;53.60;;;;;;4799995;29;20539;-80
2022/07/16 06:02:00;;;;;;;4.95;2.85;;;19.00;53.60;;;;;;4814911;29;20144;-82
2022/07/16 06:04:26;;;;;;;2.17;1.98;;;19.20;53.90;;;;;;4814582;29;20461;-80
2022/07/16 06:06:52;;;;;;;3.45;1.92;;;19.40;54.00;;;;;;4816231;29;20589;-81
2022/07/16 06:09:18;;;;;;;3.00;1.77;;;19.60;54.00;;;;;;4798511;29;20550;-80
2022/07/16 06:11:44;;;;;;;2.45;2.10;;;19.90;54.20;;;;;;4815306;29;20538;-80
2022/07/16 06:14:10;;;;;;;3.40;3.10;;;20.10;54.20;;;;;;4816209;29;20046;-83
2022/07/16 06:16:38;;;;;;;3.28;2.78;;;20.30;54.10;;;;;;4802319;29;20038;-82
2022/07/16 06:19:05;;;;;;;3.67;2.40;;;20.50;54.00;;;;;;4785401;29;20045;-84
2022/07/16 06:21:30;;;;;;;2.38;2.08;;;20.60;53.90;;;;;;4800420;29;20038;-80
2022/07/16 06:23:56;;;;;;;3.25;2.40;;;20.70;54.00;;;;;;4816995;29;20068;-84
2022/07/16 06:26:22;;;;;;;3.75;2.05;;;20.80;54.00;;;;;;4816549;29;20350;-83
2022/07/16 06:28:48;;;;;;;3.17;2.08;;;21.00;53.90;;;;;;4816625;29;20043;-82
2022/07/16 06:31:14;;;;;;;2.60;2.22;;;21.20;53.80;;;;;;4799009;29;20233;-81
2022/07/16 06:33:40;;;;;;;3.50;3.05;;;21.40;53.80;;;;;;4816248;29;20061;-82
2022/07/16 06:36:06;;;;;;;4.45;2.28;;;21.60;53.60;;;;;;4799266;29;20284;-79
2022/07/16 06:38:32;;;;;;;3.78;2.85;;;21.80;53.40;;;;;;4814436;29;20030;-77
2022/07/16 06:40:58;;;;;;;2.55;2.15;;;22.00;53.20;;;;;;4798470;29;20042;-79
2022/07/16 06:43:24;;;;;;;3.80;2.70;;;22.40;53.40;;;;;;4816878;29;20558;-79
2022/07/16 06:45:50;;;;;;;11.55;3.10;;;22.60;53.10;;;;;;4815396;29;20091;-80
2022/07/16 06:48:16;;;;;;;3.22;2.92;;;22.80;52.90;;;;;;4814980;29;20395;-79
2022/07/16 06:50:42;;;;;;;3.60;2.50;;;23.10;53.00;;;;;;4814327;29;20042;-78
2022/07/16 06:53:08;;;;;;;6.22;2.10;;;23.30;52.80;;;;;;4814502;29;20555;-78
2022/07/16 06:55:34;;;;;;;5.90;2.33;;;23.50;52.80;;;;;;4814267;29;20863;-78
2022/07/16 06:58:00;;;;;;;3.20;2.28;;;23.60;52.60;;;;;;4799419;29;20030;-79
2022/07/16 07:00:26;;;;;;;4.13;2.78;;;23.80;52.60;;;;;;4815345;29;20034;-79
2022/07/16 07:02:52;;;;;;;4.72;2.97;;;24.10;52.60;;;;;;4814834;29;20022;-79
2022/07/16 07:05:18;;;;;;;3.45;2.50;;;24.50;52.50;;;;;;4815352;29;20526;-78
2022/07/16 07:07:44;;;;;;;4.13;2.45;;;24.90;52.50;;;;;;4814423;29;20336;-78
2022/07/16 07:10:09;;;;;;;2.60;2.20;;;25.30;52.00;;;;;;4811834;29;20042;-79
2022/07/16 07:12:35;;;;;;;3.40;2.50;;;25.70;51.40;;;;;;4812730;29;20041;-78
2022/07/16 07:15:03;;;;;;;3.17;2.35;;;26.10;50.80;;;;;;4815525;29;20041;-78
2022/07/16 07:17:29;;;;;;;3.70;2.30;;;26.40;50.10;;;;;;4816372;29;20030;-80
2022/07/16 07:19:55;;;;;;;3.22;2.72;;;26.70;49.50;;;;;;4815743;29;20034;-79
2022/07/16 07:22:21;;;;;;;3.60;2.50;;;27.00;49.00;;;;;;4817000;29;20500;-80
2022/07/16 07:24:47;;;;;;;3.13;2.50;;;27.30;48.40;;;;;;4816097;29;20031;-79
2022/07/16 07:27:12;;;;;;;6.28;3.60;;;27.70;47.70;;;;;;4816276;29;20049;-79
2022/07/16 07:29:38;;;;;;;3.55;3.13;;;28.10;47.20;;;;;;4816811;29;20576;-77
2022/07/16 07:32:04;;;;;;;6.25;3.10;;;28.30;46.50;;;;;;4791737;29;20029;-79
2022/07/16 07:34:30;;;;;;;3.45;2.85;;;28.30;46.30;;;;;;4815314;29;20114;-78
2022/07/16 07:36:56;;;;;;;5.43;3.60;;;28.20;46.40;;;;;;4815199;29;20102;-76
2022/07/16 07:39:22;;;;;;;5.15;2.83;;;28.10;47.30;;;;;;4813795;29;20628;-76
2022/07/16 07:41:48;;;;;;;5.80;3.30;;;27.90;46.70;;;;;;4800272;29;20026;-77
2022/07/16 07:44:14;;;;;;;4.28;2.85;;;27.80;46.90;;;;;;4813702;29;20042;-77
2022/07/16 07:46:40;;;;;;;4.15;3.13;;;27.80;46.70;;;;;;4818241;29;20030;-78
2022/07/16 07:49:08;;;;;;;3.45;2.65;;;28.10;46.20;;;;;;4815299;29;20038;-78
2022/07/16 07:51:47;;;;;;;3.38;2.67;;;28.40;45.50;;;;;;4800646;29;20505;-77
2022/07/16 07:54:14;;;;;;;4.57;3.03;;;28.60;44.50;;;;;;4816117;29;20054;-78
2022/07/16 07:56:40;;;;;;;4.22;2.70;;;28.80;44.20;;;;;;4818973;29;20324;-78
2022/07/16 07:59:05;;;;;;;4.05;3.08;;;28.90;43.80;;;;;;4818122;29;20053;-78
2022/07/16 08:01:31;;;;;;;5.95;3.13;;;29.10;43.40;;;;;;4817778;29;20070;-78
2022/07/16 08:03:57;;;;;;;3.45;2.47;;;29.20;43.10;;;;;;4810732;29;20555;-78
2022/07/16 08:06:32;;;;;;;3.70;2.78;;;29.20;43.60;;;;;;4815167;29;20037;-78
2022/07/16 08:08:58;;;;;;;3.08;2.67;;;29.00;42.90;;;;;;4799955;29;20142;-78
2022/07/16 08:11:24;;;;;;;2.83;1.95;;;28.80;43.20;;;;;;4814550;29;20263;-79
2022/07/16 08:13:50;;;;;;;3.45;3.08;;;28.70;43.40;;;;;;4814828;29;20062;-79
2022/07/16 08:16:15;;;;;;;3.78;2.88;;;28.50;43.50;;;;;;4798358;29;20065;-77
2022/07/16 08:18:41;;;;;;;5.10;2.45;;;28.20;43.60;;;;;;4815157;29;20460;-79
2022/07/16 08:21:07;;;;;;;3.20;2.33;;;28.10;43.90;;;;;;4815728;29;20038;-78
2022/07/16 08:26:18;;;;;;;4.57;2.60;;;27.60;44.20;;;;;;4812346;29;20022;-77
2022/07/16 08:28:44;;;;;;;4.18;2.42;;;27.40;44.50;;;;;;4813886;29;21046;-78
2022/07/16 08:31:11;;;;;;;3.65;2.92;;;27.30;44.60;;;;;;4796816;29;20037;-80
2022/07/16 08:33:36;;;;;;;3.40;2.38;;;27.20;44.70;;;;;;4814957;29;20752;-80
2022/07/16 08:36:03;;;;;;;5.35;2.80;;;27.10;44.70;;;;;;4806247;29;20471;-81
2022/07/16 08:38:29;;;;;;;3.78;2.72;;;27.10;44.70;;;;;;4813093;29;20056;-80
2022/07/16 08:40:55;;;;;;;3.00;2.70;;;27.10;44.60;;;;;;4813935;29;20480;-80
2022/07/16 08:43:22;;;;;;;3.50;2.50;;;27.10;44.60;;;;;;4812490;29;20034;-80
2022/07/16 08:45:50;;;;;;;3.00;2.72;;;27.00;44.50;;;;;;4814433;29;20030;-80
2022/07/16 08:48:16;;;;;;;3.72;2.70;;;27.00;44.50;;;;;;4782877;29;20031;-79
2022/07/16 08:50:42;;;;;;;4.55;3.10;;;27.10;44.60;;;;;;4814457;29;20118;-81
2022/07/16 08:53:09;;;;;;;5.90;2.85;;;27.00;44.50;;;;;;4813457;29;20034;-79
2022/07/16 08:55:38;;;;;;;5.03;4.15;;;27.00;45.10;;;;;;4795289;29;20125;-81
2022/07/16 08:58:07;;;;;;;3.58;3.03;;;27.00;44.50;;;;;;4795839;29;20090;-79
2022/07/16 09:00:34;;;;;;;4.43;2.95;;;27.00;44.50;;;;;;4813811;29;20377;-82
2022/07/16 09:03:00;;;;;;;3.33;3.00;;;27.00;44.50;;;;;;4813263;29;20062;-79
2022/07/16 09:05:26;;;;;;;3.38;2.55;;;27.00;44.50;;;;;;4795610;29;20042;-80
2022/07/16 09:07:53;;;;;;;3.42;2.72;;;27.00;44.60;;;;;;4806647;29;20030;-80
2022/07/16 09:10:19;;;;;;;3.88;3.13;;;27.00;44.50;;;;;;4795462;29;20188;-82
2022/07/16 09:12:48;;;;;;;4.07;3.33;;;27.00;44.50;;;;;;4812398;29;20528;-83
2022/07/16 09:15:33;;;;;;;4.72;3.20;;;27.00;44.40;;;;;;4813719;29;20056;-81
2022/07/16 09:18:06;;;;;;;4.63;3.40;;;27.00;44.20;;;;;;4812521;29;20044;-80
2022/07/16 09:20:32;;;;;;;4.40;3.28;;;27.10;44.30;;;;;;4813483;29;20038;-80
2022/07/16 09:22:58;;;;;;;3.58;3.25;;;27.00;44.20;;;;;;4811687;29;20043;-78
2022/07/16 09:25:24;;;;;;;3.53;3.10;;;27.10;44.30;;;;;;4813302;29;20058;-79
2022/07/16 09:27:58;;;;;;;3.92;3.33;;;27.10;44.20;;;;;;4812747;29;20057;-78
2022/07/16 09:30:27;;;;;;;2.67;2.47;;;27.20;44.20;;;;;;4809508;29;20852;-80
2022/07/16 09:32:53;;;;;;;3.38;3.08;;;27.20;44.10;;;;;;4798945;29;20125;-80
2022/07/16 09:35:20;;;;;;;4.10;3.28;;;27.30;44.00;;;;;;4795757;29;20042;-79
2022/07/16 09:37:56;;;;;;;3.90;3.53;;;27.30;44.00;;;;;;4805523;29;20303;-81
2022/07/16 09:40:42;;;;;;;6.25;3.42;;;27.30;43.90;;;;;;4810199;29;20062;-78
2022/07/16 09:43:12;;;;;;;3.78;3.47;;;27.30;43.80;;;;;;4812832;29;20038;-80
2022/07/16 09:45:41;;;;;;;3.72;3.42;;;27.30;43.80;;;;;;4811317;29;20598;-81
2022/07/16 09:48:25;;;;;;;4.32;3.55;;;27.40;43.80;;;;;;4812177;29;20038;-81
2022/07/16 09:50:54;;;;;;;4.05;3.75;;;27.40;43.60;;;;;;4795508;29;20038;-79
2022/07/16 09:53:28;;;;;;;4.68;3.85;;;27.50;43.70;;;;;;4812824;29;20134;-80
2022/07/16 09:56:03;;;;;;;5.53;3.80;;;27.50;43.50;;;;;;4811037;29;20441;-78
2022/07/16 09:58:30;;;;;;;4.57;3.90;;;27.60;43.60;;;;;;4812150;29;20103;-79
2022/07/16 10:00:58;;;;;;;5.70;3.70;;;27.70;43.60;;;;;;4795898;29;20029;-82
2022/07/16 10:03:24;;;;;;;7.78;4.18;;;27.70;43.50;;;;;;4796209;29;20133;-82
2022/07/16 10:05:51;;;;;;;4.93;3.53;;;27.90;43.50;;;;;;4811295;29;20027;-79
2022/07/16 10:08:18;;;;;;;4.28;3.88;;;28.00;43.40;;;;;;4791379;29;20030;-81
2022/07/16 10:10:44;;;;;;;4.15;3.55;;;28.10;43.30;;;;;;4794545;29;20405;-84
2022/07/16 10:13:11;;;;;;;4.10;3.33;;;28.20;43.20;;;;;;4816682;29;20095;-81
2022/07/16 10:15:38;;;;;;;3.58;3.28;;;28.30;43.10;;;;;;4815985;29;20744;-84
2022/07/16 10:18:29;;;;;;;4.63;3.72;;;28.40;43.00;;;;;;4816741;29;20038;-85
2022/07/16 10:21:07;;;;;;;3.97;3.67;;;28.60;43.50;;;;;;4815264;29;20049;-88
2022/07/16 10:23:34;;;;;;;4.45;3.80;;;28.70;42.80;;;;;;4814165;29;20042;-87
2022/07/16 10:26:04;;;;;;;4.18;3.58;;;28.80;42.70;;;;;;4813894;29;20407;-85
2022/07/16 10:28:44;;;;;;;4.22;3.70;;;28.90;42.60;;;;;;4815424;29;20460;-89
2022/07/16 10:31:36;;;;;;;4.32;3.92;;;29.00;42.40;;;;;;4815538;29;20034;-87
2022/07/16 10:34:14;;;;;;;4.10;3.70;;;29.10;42.30;;;;;;4813827;29;20522;-86
2022/07/16 10:36:47;;;;;;;4.30;3.80;;;29.20;42.20;;;;;;4816720;29;20050;-87
2022/07/16 10:39:16;;;;;;;5.05;4.03;;;29.30;42.10;;;;;;4816162;29;20053;-88
2022/07/16 10:41:56;;;;;;;4.13;3.72;;;29.40;42.00;;;;;;4818510;29;20083;-86
2022/07/16 10:44:42;;;;;;;5.97;4.47;;;29.40;41.70;;;;;;4809582;29;20503;-84
2022/07/16 10:47:09;;;;;;;6.05;4.07;;;29.50;41.60;;;;;;4807773;29;20038;-87
2022/07/16 10:49:36;;;;;;;4.25;3.78;;;29.60;41.60;;;;;;4816864;29;20390;-84
2022/07/16 10:52:08;;;;;;;5.75;3.97;;;29.70;41.60;;;;;;4803153;29;20221;-91
2022/07/16 10:55:05;;;;;;;4.35;3.90;;;29.70;41.30;;;;;;4813170;29;20532;-87
2022/07/16 10:57:37;;;;;;;5.35;4.07;;;29.70;41.00;;;;;;4788852;29;20399;-84
2022/07/16 11:00:06;;;;;;;3.80;3.50;;;29.80;41.20;;;;;;4814115;29;20073;-85
2022/07/16 11:02:38;;;;;;;4.60;4.20;;;29.90;41.30;;;;;;4819401;29;20428;-88
2022/07/16 11:05:04;;;;;;;4.30;3.88;;;30.00;41.10;;;;;;4818102;29;20038;-86
2022/07/16 11:07:34;;;;;;;4.30;3.63;;;30.10;41.10;;;;;;4816764;29;20121;-86
2022/07/16 11:10:00;;;;;;;4.18;3.78;;;30.10;40.90;;;;;;4798841;29;20046;-85
2022/07/16 11:12:29;;;;;;;4.40;4.00;;;30.20;40.80;;;;;;4803818;29;20041;-88
2022/07/16 11:14:59;;;;;;;6.53;4.32;;;30.30;41.30;;;;;;4815778;29;20046;-85
2022/07/16 11:17:29;;;;;;;5.25;4.32;;;30.40;40.60;;;;;;4818976;29;20045;-84
2022/07/16 11:20:00;;;;;;;7.18;4.60;;;30.50;40.40;;;;;;4817702;29;20495;-83
2022/07/16 11:22:28;;;;;;;5.15;4.55;;;30.60;40.40;;;;;;4824851;29;20037;-85
2022/07/16 11:25:00;;;;;;;5.30;4.07;;;30.60;40.20;;;;;;4819688;29;20038;-88
2022/07/16 11:27:39;;;;;;;4.28;3.88;;;30.70;40.20;;;;;;4810041;29;20398;-81
2022/07/16 11:30:10;;;;;;;4.90;4.43;;;30.90;40.20;;;;;;4819531;29;20046;-83
2022/07/16 11:32:43;;;;;;;4.32;3.92;;;30.90;40.00;;;;;;4820128;29;20038;-81
2022/07/16 11:35:10;;;;;;;4.80;4.18;;;31.10;39.80;;;;;;4800445;29;20034;-82
2022/07/16 11:37:48;;;;;;;5.38;4.88;;;31.30;39.80;;;;;;4826045;29;20103;-82
2022/07/16 11:40:14;;;;;;;9.88;4.90;;;31.40;39.50;;;;;;4818003;29;20038;-81
2022/07/16 11:42:40;;;;;;;7.28;4.75;;;31.40;39.40;;;;;;4824273;29;20114;-82
2022/07/16 11:45:07;;;;;;;4.82;4.40;;;31.50;39.40;;;;;;4811794;29;20041;-78
2022/07/16 11:47:32;;;;;;;6.10;4.85;;;31.50;39.30;;;;;;4819678;29;20034;-80
2022/07/16 11:49:58;;;;;;;4.97;4.25;;;31.60;39.40;;;;;;4815271;29;20053;-81
2022/07/16 11:52:24;;;;;;;5.30;4.75;;;31.70;39.30;;;;;;4818065;29;20522;-82
2022/07/16 11:54:55;;;;;;;5.18;4.70;;;31.80;39.20;;;;;;4813075;29;20038;-82
2022/07/16 11:57:21;;;;;;;8.55;4.78;;;31.90;39.10;;;;;;4817359;29;20046;-81
2022/07/16 11:59:52;;;;;;;5.22;4.72;;;32.00;39.00;;;;;;4815245;29;20038;-81
2022/07/16 12:02:45;;;;;;;6.18;4.45;;;32.00;38.90;;;;;;4815843;29;20034;-80
2022/07/16 12:05:10;;;;;;;5.35;4.85;;;32.00;38.70;;;;;;4815461;29;20035;-81
2022/07/16 12:07:36;;;;;;;4.85;4.35;;;32.10;38.90;;;;;;4814613;29;20049;-79
2022/07/16 12:10:06;;;;;;;6.38;4.80;;;32.10;38.80;;;;;;4797863;29;20186;-79
2022/07/16 12:12:37;;;;;;;5.53;4.97;;;32.10;38.80;;;;;;4815001;29;20030;-78
2022/07/16 12:15:12;;;;;;;6.13;5.50;;;32.10;38.80;;;;;;4814606;29;20038;-83
2022/07/16 12:17:44;;;;;;;7.68;6.63;;;32.10;38.60;;;;;;4811599;29;20069;-86
2022/07/16 12:20:17;;;;;;;7.22;5.88;;;32.20;38.80;;;;;;4799503;29;20034;-85
2022/07/16 12:22:57;;;;;;;6.15;5.55;;;32.20;38.70;;;;;;4818391;29;20046;-85
2022/07/16 12:25:25;;;;;;;7.53;5.32;;;32.20;38.70;;;;;;4814216;29;20034;-80
2022/07/16 12:27:54;;;;;;;6.20;5.60;;;32.20;38.60;;;;;;4815258;29;20355;-78
2022/07/16 12:30:36;;;;;;;5.40;4.90;;;32.40;38.70;;;;;;4814175;29;20049;-79
2022/07/16 12:33:06;;;;;;;5.25;4.85;;;32.40;38.50;;;;;;4813921;29;20030;-77
2022/07/16 12:35:36;;;;;;;6.00;4.85;;;32.50;38.50;;;;;;4812526;29;20038;-76
2022/07/16 12:38:03;;;;;;;4.55;4.13;;;32.50;38.40;;;;;;4812887;29;20078;-79
2022/07/16 12:40:29;;;;;;;5.35;4.93;;;32.50;38.30;;;;;;4815041;29;20327;-79
2022/07/16 12:42:55;;;;;;;4.20;3.90;;;32.50;38.20;;;;;;4814481;29;20046;-79
2022/07/16 12:45:21;;;;;;;5.68;5.05;;;32.50;38.10;;;;;;4817089;29;20060;-79
2022/07/16 12:47:47;;;;;;;4.43;4.03;;;32.60;37.90;;;;;;4809859;29;20526;-81
2022/07/16 12:50:13;;;;;;;5.03;4.63;;;32.70;37.70;;;;;;4815146;29;20245;-78
2022/07/16 12:52:39;;;;;;;4.47;4.18;;;32.70;37.50;;;;;;4816976;29;20489;-77
2022/07/16 13:00:35;;;;;;;4.93;4.43;;;32.90;37.10;;;;;;4811065;29;20470;-77
2022/07/16 13:03:02;;;;;;;4.75;4.20;;;32.90;37.10;;;;;;4812887;29;20037;-77